createdAt,value
2023-05-22T00:02:00.374Z,-24726.13
2023-05-22T00:04:30.291Z,-24730.31
2023-05-22T00:06:57.653Z,-24722.09
2023-05-22T00:09:25.676Z,-24729.72
2023-05-22T00:11:53.316Z,-24723.44
2023-05-22T00:14:20.753Z,-24731.66
2023-05-22T00:16:48.608Z,-24736.75
2023-05-22T00:19:17.413Z,-24743.31
2023-05-22T00:21:45.114Z,-24739.72
2023-05-22T00:24:12.593Z,-24740.31
2023-05-22T00:26:40.066Z,-24747.66
2023-05-22T00:29:07.581Z,-24745.25
2023-05-22T00:31:35.255Z,-24740.78
2023-05-22T00:34:02.784Z,-24747.94
2023-05-22T00:36:30.390Z,-24752.44
2023-05-22T00:38:57.798Z,-24752.59
2023-05-22T00:41:25.249Z,-24751.84
2023-05-22T00:43:53.693Z,-24754.81
2023-05-22T00:46:21.772Z,-24749.44
2023-05-22T00:48:49.489Z,-24756.03
2023-05-22T00:51:17.061Z,-24753.78
2023-05-22T00:53:45.169Z,-24751.69
2023-05-22T00:56:13.264Z,-24749.91
2023-05-22T00:58:41.484Z,-24750.66
2023-05-22T01:01:11.595Z,-24758.25
2023-05-22T01:03:42.617Z,-24750.50
2023-05-22T01:06:11.199Z,-24748.69
2023-05-22T01:08:38.660Z,-24764.53
2023-05-22T01:11:41.349Z,-24755.13
2023-05-22T01:14:21.008Z,-24753.78
2023-05-22T01:16:49.045Z,-24757.22
2023-05-22T01:19:18.203Z,-24752.72
2023-05-22T01:22:07.848Z,-24752.59
2023-05-22T01:25:01.397Z,-24758.41
2023-05-22T01:27:35.417Z,-24751.84
2023-05-22T01:30:33.823Z,-24743.31
2023-05-22T01:33:01.729Z,-24741.06
2023-05-22T01:35:30.541Z,-24745.84
2023-05-22T01:37:58.514Z,-24734.50
2023-05-22T01:40:26.180Z,-24741.06
2023-05-22T01:42:53.604Z,-24731.66
2023-05-22T01:45:21.497Z,-24743.47
2023-05-22T01:47:49.003Z,-24741.38
2023-05-22T01:50:18.312Z,-24738.38
2023-05-22T01:52:52.626Z,-24740.78
2023-05-22T01:55:27.594Z,-24732.72
2023-05-22T01:57:55.122Z,-24738.53
2023-05-22T02:00:24.040Z,-24732.09
2023-05-22T02:02:57.030Z,-24730.59
2023-05-22T02:05:26.907Z,-24733.91
2023-05-22T02:07:56.584Z,-24736.16
2023-05-22T02:10:26.087Z,-24734.50
2023-05-22T02:12:53.735Z,-24733.75
2023-05-22T02:15:22.286Z,-24737.63
2023-05-22T02:17:49.837Z,-24733.91
2023-05-22T02:20:17.421Z,-24730.59
2023-05-22T02:22:46.712Z,-24727.31
2023-05-22T02:25:14.954Z,-24727.91
2023-05-22T02:27:47.318Z,-24725.81
2023-05-22T02:30:15.277Z,-24720.44
2023-05-22T02:32:45.471Z,-24714.44
2023-05-22T02:35:12.939Z,-24712.81
2023-05-22T02:37:40.423Z,-24710.56
2023-05-22T02:40:08.289Z,-24710.41
2023-05-22T02:42:35.994Z,-24709.06
2023-05-22T02:45:03.593Z,-24712.66
2023-05-22T02:47:33.772Z,-24704.25
2023-05-22T02:50:01.181Z,-24699.47
2023-05-22T02:52:28.712Z,-24700.06
2023-05-22T02:54:56.280Z,-24700.06
2023-05-22T02:57:24.165Z,-24693.19
2023-05-22T02:59:52.791Z,-24693.31
2023-05-22T03:02:20.198Z,-24681.03
2023-05-22T03:04:49.129Z,-24679.81
2023-05-22T03:07:17.136Z,-24681.03
2023-05-22T03:09:44.681Z,-24681.94
2023-05-22T03:12:12.598Z,-24686.59
2023-05-22T03:14:40.195Z,-24678.31
2023-05-22T03:17:08.941Z,-24683.13
2023-05-22T03:19:36.621Z,-24683.88
2023-05-22T03:22:04.177Z,-24681.34
2023-05-22T03:24:32.406Z,-24675.94
2023-05-22T03:27:00.783Z,-24675.47
2023-05-22T03:29:36.489Z,-24669.47
2023-05-22T03:32:04.490Z,-24666.19
2023-05-22T03:34:32.486Z,-24667.06
2023-05-22T03:37:00.746Z,-24664.06
2023-05-22T03:39:28.059Z,-24663.78
2023-05-22T03:42:01.295Z,-24663.63
2023-05-22T03:44:29.272Z,-24662.72
2023-05-22T03:46:58.192Z,-24656.72
2023-05-22T03:49:25.535Z,-24658.38
2023-05-22T03:51:52.803Z,-24643.66
2023-05-22T03:54:20.211Z,-24653.09
2023-05-22T03:56:47.479Z,-24630.88
2023-05-22T03:59:14.755Z,-24643.34
2023-05-22T04:01:42.022Z,-24637.63
2023-05-22T04:04:09.712Z,-24645.91
2023-05-22T04:06:43.177Z,-24658.38
2023-05-22T04:09:13.750Z,-24650.13
2023-05-22T04:11:42.269Z,-24652.66
2023-05-22T04:14:09.686Z,-24664.22
2023-05-22T04:16:36.952Z,-24667.06
2023-05-22T04:19:04.462Z,-24676.53
2023-05-22T04:21:35.775Z,-24676.06
2023-05-22T04:24:07.407Z,-24668.88
2023-05-22T04:26:36.176Z,-24669.94
2023-05-22T04:29:03.873Z,-24669.47
2023-05-22T04:31:31.122Z,-24679.22
2023-05-22T04:34:00.370Z,-24685.84
2023-05-22T04:36:28.056Z,-24684.03
2023-05-22T04:38:55.509Z,-24684.31
2023-05-22T04:41:26.514Z,-24673.69
2023-05-22T04:43:54.595Z,-24650.72
2023-05-22T04:46:22.684Z,-24654.63
2023-05-22T04:48:51.103Z,-24648.16
2023-05-22T04:51:18.662Z,-24654.16
2023-05-22T04:53:46.420Z,-24662.88
2023-05-22T04:56:18.600Z,-24669.94
2023-05-22T04:58:53.937Z,-24663.03
2023-05-22T05:01:21.858Z,-24667.81
2023-05-22T05:03:49.254Z,-24672.03
2023-05-22T05:06:17.355Z,-24684.94
2023-05-22T05:08:46.803Z,-24701.72
2023-05-22T05:11:14.346Z,-24701.88
2023-05-22T05:13:43.008Z,-24705.47
2023-05-22T05:16:10.345Z,-24697.22
2023-05-22T05:18:38.079Z,-24706.50
2023-05-22T05:21:05.439Z,-24714.91
2023-05-22T05:23:33.096Z,-24712.22
2023-05-22T05:26:00.464Z,-24717.44
2023-05-22T05:28:28.807Z,-24717.88
2023-05-22T05:30:57.720Z,-24723.44
2023-05-22T05:33:43.756Z,-24731.06
2023-05-22T05:36:16.600Z,-24733.44
2023-05-22T05:38:45.987Z,-24734.50
2023-05-22T05:41:14.538Z,-24743.75
2023-05-22T05:43:42.733Z,-24759.31
2023-05-22T05:46:10.765Z,-24768.56
2023-05-22T05:48:38.288Z,-24771.84
2023-05-22T05:51:06.258Z,-24782.88
2023-05-22T05:53:39.328Z,-24780.94
2023-05-22T05:56:10.751Z,-24788.41
2023-05-22T05:58:39.069Z,-24793.78
2023-05-22T06:01:35.327Z,-24811.66
2023-05-22T06:04:04.385Z,-24815.38
2023-05-22T06:06:36.399Z,-24821.63
2023-05-22T06:09:15.891Z,-24826.53
2023-05-22T06:12:02.002Z,-24825.78
2023-05-22T06:14:29.711Z,-24845.41
2023-05-22T06:16:57.468Z,-24877.19
2023-05-22T06:19:24.910Z,-24900.59
2023-05-22T06:21:52.434Z,-24943.19
2023-05-22T06:24:21.406Z,-24979.22
2023-05-22T06:26:48.670Z,-25008.38
2023-05-22T06:29:16.356Z,-24991.00
2023-05-22T06:31:45.830Z,-25005.56
2023-05-22T06:34:14.880Z,-25037.75
2023-05-22T06:36:42.375Z,-25060.22
2023-05-22T06:39:09.916Z,-25053.47
2023-05-22T06:42:00.298Z,-25041.56
2023-05-22T06:44:47.527Z,-25058.59
2023-05-22T06:47:14.737Z,-25029.69
2023-05-22T06:49:42.356Z,-25061.09
2023-05-22T06:52:10.179Z,-25056.25
2023-05-22T06:54:38.719Z,-25060.66
2023-05-22T06:57:06.481Z,-25047.16
2023-05-22T06:59:34.262Z,-25082.03
2023-05-22T07:02:07.723Z,-25085.84
2023-05-22T07:04:54.101Z,-25138.16
2023-05-22T07:07:28.495Z,-25148.34
2023-05-22T07:09:57.004Z,-25181.69
2023-05-22T07:12:29.032Z,-25152.72
2023-05-22T07:15:05.257Z,-25208.56
2023-05-22T07:17:56.412Z,-25199.41
2023-05-22T07:20:25.821Z,-25144.13
2023-05-22T07:23:11.509Z,-25016.75
2023-05-22T07:25:39.583Z,-25063.28
2023-05-22T07:28:14.950Z,-25118.28
2023-05-22T07:31:27.846Z,-25117.56
2023-05-22T07:33:57.269Z,-25114.34
2023-05-22T07:36:24.721Z,-25118.28
2023-05-22T07:38:52.306Z,-25132.03
2023-05-22T07:41:34.525Z,-25139.16
2023-05-22T07:45:05.936Z,-25180.66
2023-05-22T07:47:34.549Z,-25128.97
2023-05-22T07:50:30.690Z,-25157.53
2023-05-22T07:53:28.654Z,-25124.88
2023-05-22T07:56:00.644Z,-25079.69
2023-05-22T07:58:28.256Z,-25145.44
2023-05-22T08:00:56.037Z,-25134.94
2023-05-22T08:03:24.416Z,-25166.41
2023-05-22T08:05:54.539Z,-25178.50
2023-05-22T08:08:22.369Z,-25116.41
2023-05-22T08:11:02.845Z,-25134.50
2023-05-22T08:13:31.491Z,-25068.13
2023-05-22T08:16:00.233Z,-25147.47
2023-05-22T08:18:29.831Z,-25084.81
2023-05-22T08:20:57.694Z,-25094.91
2023-05-22T08:23:25.149Z,-25131.16
2023-05-22T08:25:52.516Z,-25082.31
2023-05-22T08:28:19.848Z,-25073.41
2023-05-22T08:30:47.136Z,-25097.09
2023-05-22T08:33:14.566Z,-25066.50
2023-05-22T08:35:41.893Z,-25112.31
2023-05-22T08:38:09.668Z,-25063.88
2023-05-22T08:40:40.806Z,-25056.53
2023-05-22T08:43:09.614Z,-25055.94
2023-05-22T08:45:37.238Z,-25090.66
2023-05-22T08:48:06.232Z,-25097.97
2023-05-22T08:50:37.109Z,-25102.06
2023-05-22T08:53:06.742Z,-25135.22
2023-05-22T08:55:34.350Z,-25084.66
2023-05-22T08:58:02.505Z,-25094.63
2023-05-22T09:00:30.469Z,-25100.63
2023-05-22T09:02:58.122Z,-25179.78
2023-05-22T09:05:28.416Z,-25186.47
2023-05-22T09:08:02.596Z,-25083.94
2023-05-22T09:10:32.781Z,-25084.22
2023-05-22T09:13:00.880Z,-25032.91
2023-05-22T09:15:29.730Z,-25097.84
2023-05-22T09:17:57.183Z,-25087.00
2023-05-22T09:20:24.732Z,-25070.03
2023-05-22T09:22:52.200Z,-25003.22
2023-05-22T09:25:20.787Z,-25029.97
2023-05-22T09:27:48.788Z,-25009.69
2023-05-22T09:30:17.757Z,-24991.13
2023-05-22T09:32:47.003Z,-25072.50
2023-05-22T09:35:14.736Z,-25040.84
2023-05-22T09:37:42.215Z,-25041.88
2023-05-22T09:40:12.049Z,-25052.28
2023-05-22T09:42:39.543Z,-25023.06
2023-05-22T09:45:07.356Z,-25001.16
2023-05-22T09:47:35.185Z,-25008.06
2023-05-22T09:50:04.681Z,-24957.38
2023-05-22T09:52:36.119Z,-25034.09
2023-05-22T09:55:04.926Z,-25021.44
2023-05-22T09:57:36.580Z,-24974.63
2023-05-22T10:00:09.597Z,-24960.03
2023-05-22T10:02:42.120Z,-24986.13
2023-05-22T10:05:09.688Z,-25001.28
2023-05-22T10:07:42.065Z,-24989.06
2023-05-22T10:10:12.307Z,-24984.38
2023-05-22T10:12:44.761Z,-25014.84
2023-05-22T10:15:12.475Z,-24988.50
2023-05-22T10:17:40.113Z,-24965.06
2023-05-22T10:20:09.150Z,-24992.31
2023-05-22T10:22:39.374Z,-25019.97
2023-05-22T10:25:09.141Z,-24994.69
2023-05-22T10:27:38.329Z,-25032.91
2023-05-22T10:30:13.610Z,-25014.09
2023-05-22T10:33:03.498Z,-24978.63
2023-05-22T10:35:45.057Z,-24983.63
2023-05-22T10:38:22.351Z,-25010.13
2023-05-22T10:40:50.122Z,-24992.91
2023-05-22T10:43:17.948Z,-25003.94
2023-05-22T10:45:46.818Z,-25022.78
2023-05-22T10:48:14.286Z,-24969.91
2023-05-22T10:50:50.980Z,-24968.72
2023-05-22T10:53:18.534Z,-24960.91
2023-05-22T10:55:51.487Z,-24978.19
2023-05-22T10:58:25.175Z,-24981.84
2023-05-22T11:01:13.122Z,-24933.75
2023-05-22T11:03:54.262Z,-24970.81
2023-05-22T11:06:36.825Z,-24994.09
2023-05-22T11:09:36.551Z,-24971.69
2023-05-22T11:12:12.746Z,-24944.38
2023-05-22T11:14:40.159Z,-24949.84
2023-05-22T11:17:07.612Z,-24936.69
2023-05-22T11:19:35.100Z,-24956.50
2023-05-22T11:22:03.859Z,-24957.97
2023-05-22T11:24:34.452Z,-24945.56
2023-05-22T11:27:03.527Z,-24980.25
2023-05-22T11:29:31.010Z,-24933.75
2023-05-22T11:31:59.041Z,-24923.84
2023-05-22T11:34:26.426Z,-24933.59
2023-05-22T11:36:57.905Z,-24942.47
2023-05-22T11:39:25.333Z,-24924.28
2023-05-22T11:41:53.009Z,-24906.97
2023-05-22T11:44:20.612Z,-24918.22
2023-05-22T11:46:48.142Z,-24927.25
2023-05-22T11:49:17.633Z,-24921.63
2023-05-22T11:51:45.335Z,-24954.56
2023-05-22T11:54:12.623Z,-24956.50
2023-05-22T11:56:39.798Z,-24905.63
2023-05-22T11:59:07.484Z,-24928.28
2023-05-22T12:01:36.388Z,-24918.50
2023-05-22T12:04:04.992Z,-24894.09
2023-05-22T12:06:33.695Z,-24925.75
2023-05-22T12:09:01.375Z,-24938.63
2023-05-22T12:11:28.921Z,-24942.91
2023-05-22T12:14:05.827Z,-24946.00
2023-05-22T12:16:36.846Z,-24889.94
2023-05-22T12:19:04.901Z,-24913.03
2023-05-22T12:21:32.502Z,-24907.56
2023-05-22T12:24:03.136Z,-24907.72
2023-05-22T12:26:31.324Z,-24901.94
2023-05-22T12:28:59.292Z,-24896.31
2023-05-22T12:31:26.942Z,-24918.06
2023-05-22T12:33:55.175Z,-24903.25
2023-05-22T12:36:31.582Z,-24909.34
2023-05-22T12:38:59.084Z,-24938.91
2023-05-22T12:41:26.633Z,-24909.34
2023-05-22T12:43:54.095Z,-24927.97
2023-05-22T12:46:21.586Z,-24910.66
2023-05-22T12:48:52.114Z,-24925.03
2023-05-22T12:51:20.145Z,-24928.56
2023-05-22T12:53:47.814Z,-24908.88
2023-05-22T12:56:15.337Z,-24940.38
2023-05-22T12:58:43.841Z,-24925.31
2023-05-22T13:01:11.320Z,-24935.53
2023-05-22T13:03:38.701Z,-24930.63
2023-05-22T13:06:06.338Z,-24935.06
2023-05-22T13:08:33.826Z,-24935.97
2023-05-22T13:15:46.200Z,-24945.56
2023-05-22T13:18:44.477Z,-24913.34
2023-05-22T13:19:18.163Z,-24940.84
2023-05-22T13:21:42.300Z,-24911.13
2023-05-22T13:28:09.177Z,-24884.59
2023-05-22T13:31:24.198Z,-24909.19
2023-05-22T13:44:11.325Z,-24938.91
2023-05-22T13:46:43.205Z,-24960.91
2023-05-22T13:49:13.890Z,-24923.09
2023-05-22T13:51:43.788Z,-24931.22
2023-05-22T13:54:19.121Z,-24944.38
2023-05-22T13:56:46.659Z,-24903.25
2023-05-22T13:59:14.302Z,-24894.09
2023-05-22T14:01:41.854Z,-24908.88
2023-05-22T14:04:11.778Z,-24901.94
2023-05-22T14:06:39.294Z,-24913.34
2023-05-22T14:09:09.821Z,-24921.91
2023-05-22T14:11:37.646Z,-24921.75
2023-05-22T14:14:05.158Z,-24937.44
2023-05-22T14:16:32.653Z,-24921.75
2023-05-22T14:19:00.789Z,-24919.84
2023-05-22T14:25:52.874Z,-24930.19
2023-05-22T14:28:20.373Z,-24920.28
2023-05-22T14:30:47.817Z,-24934.78
2023-05-22T14:33:17.349Z,-24929.91
2023-05-22T14:35:44.912Z,-24938.31
2023-05-22T15:07:58.755Z,-24909.19
2023-05-22T15:18:08.619Z,-24928.41
2023-05-22T15:20:54.041Z,-24916.44
2023-05-22T15:32:04.127Z,-24899.88
2023-05-22T15:35:14.527Z,-24911.25
2023-05-22T15:38:19.477Z,-24906.53
2023-05-22T15:40:49.447Z,-24907.84
2023-05-22T15:43:17.219Z,-24914.53
2023-05-22T15:45:48.594Z,-24906.53
2023-05-22T15:48:16.893Z,-24901.94
2023-05-22T15:55:05.841Z,-24917.47
2023-05-22T15:57:46.591Z,-24912.00
2023-05-22T16:00:14.568Z,-24920.44
2023-05-22T16:02:43.120Z,-24915.13
2023-05-22T16:05:10.568Z,-24915.13
2023-05-22T16:12:03.176Z,-24904.16
2023-05-22T16:14:31.126Z,-24901.50
2023-05-22T16:16:58.533Z,-24888.00
2023-05-22T16:23:50.840Z,-24894.66
2023-05-22T16:26:18.218Z,-24900.75
2023-05-22T16:28:45.699Z,-24906.81
2023-05-22T16:31:17.036Z,-24904.59
2023-05-22T16:33:46.470Z,-24908.88
2023-05-22T16:44:57.969Z,-24903.84
2023-05-22T16:51:50.798Z,-24881.03
2023-05-22T16:54:17.992Z,-24894.38
2023-05-22T16:56:45.218Z,-24896.59
2023-05-22T16:59:14.471Z,-24891.56
2023-05-22T17:01:43.001Z,-24878.50
2023-05-22T17:08:35.593Z,-24881.19
2023-05-22T17:15:21.933Z,-24888.16
2023-05-22T17:17:50.014Z,-24883.84
2023-05-22T17:24:43.404Z,-24882.22
2023-05-22T17:31:29.729Z,-24876.00
2023-05-22T17:38:16.847Z,-24875.25
2023-05-22T17:40:45.989Z,-24875.41
2023-05-22T17:47:39.672Z,-24859.38
2023-05-22T17:54:25.659Z,-24857.44
2023-05-22T17:56:52.887Z,-24853.28
2023-05-22T17:59:20.100Z,-24848.09
2023-05-22T18:06:12.055Z,-24850.03
2023-05-22T18:08:40.157Z,-24843.63
2023-05-22T18:11:07.529Z,-24840.22
2023-05-22T18:18:00.425Z,-24831.44
2023-05-22T18:20:27.640Z,-24830.84
2023-05-22T18:22:55.029Z,-24832.78
2023-05-22T18:25:22.254Z,-24820.88
2023-05-22T18:27:49.577Z,-24816.56
2023-05-22T18:34:37.623Z,-24810.31
2023-05-22T18:37:05.467Z,-24810.00
2023-05-22T18:39:32.655Z,-24808.06
2023-05-22T18:42:02.773Z,-24796.91
2023-05-22T18:44:30.263Z,-24790.94
2023-05-22T18:51:22.960Z,-24785.88
2023-05-22T18:58:09.859Z,-24782.13
2023-05-22T19:00:39.172Z,-24777.66
2023-05-22T19:03:06.881Z,-24777.81
2023-05-22T19:05:34.930Z,-24776.47
2023-05-22T19:08:02.277Z,-24774.69
2023-05-22T19:14:48.511Z,-24777.97
2023-05-22T19:17:16.107Z,-24779.31
2023-05-22T19:19:43.601Z,-24775.13
2023-05-22T19:26:35.829Z,-24772.00
2023-05-22T19:29:03.150Z,-24772.59
2023-05-22T19:31:30.681Z,-24766.16
2023-05-22T19:33:57.986Z,-24766.16
2023-05-22T19:36:25.374Z,-24762.59
2023-05-22T19:42:34.803Z,-24758.41
2023-05-22T19:49:20.956Z,-24759.31
2023-05-22T19:51:48.236Z,-24751.25
2023-05-22T19:54:15.850Z,-24748.53
2023-05-22T20:01:02.164Z,-24757.50
2023-05-22T20:03:29.834Z,-24758.25
2023-05-22T20:05:57.524Z,-24754.81
2023-05-22T20:08:25.815Z,-24741.81
2023-05-22T20:10:53.466Z,-24751.53
2023-05-22T20:17:41.552Z,-24753.34
2023-05-22T20:20:09.521Z,-24752.13
2023-05-22T20:22:36.934Z,-24751.69
2023-05-22T20:29:36.936Z,-24753.19
2023-05-22T20:32:04.647Z,-24749.75
2023-05-22T20:34:32.210Z,-24741.22
2023-05-22T20:37:00.241Z,-24737.78
2023-05-22T20:39:28.384Z,-24740.19
2023-05-22T20:41:58.168Z,-24739.28
2023-05-22T20:44:25.645Z,-24738.97
2023-05-22T20:51:20.840Z,-24741.69
2023-05-22T20:58:37.913Z,-24744.38
2023-05-22T21:01:06.756Z,-24739.28
2023-05-22T21:07:55.143Z,-24732.72
2023-05-22T21:14:44.150Z,-24737.78
2023-05-22T21:17:11.823Z,-24740.63
2023-05-22T21:19:39.592Z,-24744.81
2023-05-22T21:26:32.082Z,-24739.88
2023-05-22T21:29:32.586Z,-24739.59
2023-05-22T22:29:39.035Z,-24720.13
2023-05-22T22:32:06.623Z,-24711.47
2023-05-22T22:34:34.036Z,-24703.38
2023-05-22T22:41:26.266Z,-24714.16
2023-05-22T22:43:54.708Z,-24710.25
2023-05-22T22:46:22.475Z,-24708.16
2023-05-22T22:48:51.243Z,-24709.34
2023-05-22T22:51:18.781Z,-24706.34
2023-05-22T22:58:11.353Z,-24700.97
2023-05-22T23:00:38.900Z,-24697.97
2023-05-22T23:03:06.414Z,-24701.72
2023-05-22T23:10:00.097Z,-24703.66
2023-05-22T23:12:27.506Z,-24699.16
2023-05-22T23:14:55.589Z,-24704.41
2023-05-22T23:21:48.131Z,-24692.13
2023-05-22T23:24:15.731Z,-24690.63
2023-05-22T23:26:43.182Z,-24688.09
2023-05-22T23:29:10.681Z,-24689.44
2023-05-22T23:31:38.830Z,-24694.97
2023-05-22T23:38:31.168Z,-24687.47
2023-05-22T23:40:58.649Z,-24682.38
2023-05-22T23:43:26.148Z,-24669.78
2023-05-22T23:50:12.228Z,-24650.25
2023-05-22T23:52:39.662Z,-24656.25
2023-05-22T23:55:07.485Z,-24663.16
